ADDS METAR Data INFO
IDs: Format: Raw Decoded Include TAF

Data at: 0745 UTC 21 Jul 2018

PAWN 210741Z AUTO 32003KT 10SM OVC030 13/10 A3023 RMK AO2
PAWN 210656Z AUTO 32003KT 10SM OVC026 13/10 A3023 RMK AO2 SLP251 T01280100
PAWN 210556Z AUTO 00000KT 10SM OVC026 13/10 A3023 RMK AO2 SLP250 T01330100 10133 20117 56003
PAWN 210456Z AUTO 30005KT 10SM OVC026 13/10 A3023 RMK AO2 SLP251 T01280100
PAWN 210356Z AUTO 00000KT 10SM BKN017 OVC026 13/10 A3023 RMK AO2 SLP252 T01330100
PAWN 210256Z AUTO 23003KT 10SM OVC017 13/10 A3024 RMK AO2 SLP253 T01330100 55002
PAWN 210231Z AUTO 19003KT 10SM FEW013 OVC019 13/10 A3023 RMK AO2
PAWN 210156Z AUTO VRB03KT 10SM OVC011 13/10 A3023 RMK AO2 SLP253 T01280100
PAWN 210142Z AUTO 23003KT 10SM BKN011 BKN018 OVC024 13/10 A3024 RMK AO2
PAWN 210118Z AUTO 20003KT 10SM SCT010 OVC017 13/10 A3024 RMK AO2
PAWN 210056Z AUTO 23004KT 10SM OVC010 12/10 A3024 RMK AO2 SLP254 T01220100
PAWN 202356Z AUTO 23006KT 10SM OVC010 12/10 A3024 RMK AO2 RAE2259 SLP255 P0000 60001 T01220100 10122 20083 50004
PAWN 202256Z AUTO 20003KT 5SM -RA BR OVC010 11/10 A3025 RMK AO2 RAB43 CIG 009V012 SLP256 P0000 T01110100
PAWN 202156Z AUTO 21006KT 10SM BKN011 OVC019 12/09 A3023 RMK AO2 SLP253 T01170094
PAWN 202131Z AUTO 20008KT 9SM FEW009 BKN014 OVC021 12/10 A3023 RMK AO2
PAWN 202117Z AUTO 21006KT 7SM OVC014 11/09 A3023 RMK AO2
PAWN 202056Z AUTO 19006KT 10SM FEW008 OVC016 11/09 A3023 RMK AO2 SLP251 P0001 60001 T01110094 51004
PAWN 202045Z AUTO 19005KT 10SM FEW008 OVC016 11/09 A3023 RMK AO2 P0001
PAWN 202020Z AUTO 18006KT 10SM BKN012 OVC028 11/09 A3022 RMK AO2 P0001
PAWN 201956Z AUTO 19005KT 10SM FEW012 OVC028 11/09 A3022 RMK AO2 SLP249 T01060094
PAWN 201953Z AUTO 18005KT 10SM SCT012 OVC030 11/09 A3022 RMK AO2
PAWN 201912Z AUTO 21005KT 10SM SCT003 BKN012 OVC032 10/09 A3022 RMK AO2
PAWN 201831Z AUTO 00000KT 3SM BR OVC003 09/08 A3022 RMK AO2 RAE29 P0000
PAWN 201756Z AUTO 00000KT 1 3/4SM -RA BR OVC003 08/08 A3022 RMK AO2 SLP248 P0000 60001 T00830078 10089 20072 55000
PAWN 201706Z AUTO 33003KT 3SM -RA BR OVC003 08/07 A3022 RMK AO2 P0000
PAWN 201656Z AUTO 33003KT 2 1/2SM -RA BR OVC003 08/07 A3022 RMK AO2 SLP247 P0001 T00780072
PAWN 201628Z AUTO 00000KT 3SM -RA BR BKN005 OVC012 08/08 A3021 RMK AO2 CIG 003V007 P0000
PAWN 201609Z AUTO 00000KT 5SM -RA BR SCT007 OVC012 08/07 A3021 RMK AO2 P0000
PAWN 201556Z AUTO 00000KT 3SM -RA BR OVC012 08/07 A3021 RMK AO2 RAB06 SLP246 P0000 T00780072
PAWN 201523Z AUTO 00000KT 2 1/2SM BR SCT007 OVC014 08/06 A3022 RMK AO2 RAB06E21 P0000
PAWN 201515Z AUTO 00000KT 3SM -RA BR SCT007 OVC016 08/06 A3022 RMK AO2 RAB06 P0000
PAWN 201456Z AUTO 00000KT 10SM OVC016 08/06 A3022 RMK AO2 SLP248 T00830056 56001
PAWN 201356Z AUTO 00000KT 10SM FEW018 OVC028 09/05 A3022 RMK AO2 SLP248 T00890050
PAWN 201256Z AUTO 00000KT 10SM BKN024 OVC035 08/06 A3022 RMK AO2 SLP248 T00830056
PAWN 201156Z AUTO 00000KT 10SM OVC060 08/04 A3022 RMK AO2 SLP249 70001 T00780039 10128 20078 53000
PAWN 201056Z AUTO 00000KT 10SM OVC075 09/03 A3022 RMK AO2 SLP248 T00890033
PAWN 200956Z AUTO 00000KT 10SM OVC080 09/04 A3023 RMK AO2 SLP250 T00890039
PAWN 200856Z AUTO 26003KT 10SM BKN085 08/04 A3022 RMK AO2 SLP249 T00830044 51005
PAWN 200756Z AUTO 24005KT 10SM CLR 09/05 A3022 RMK AO2 SLP249 T00890050 401500061
PAWN 200656Z AUTO 25006KT 10SM CLR 11/06 A3022 RMK AO2 SLP247 T01060056
PAWN 200556Z AUTO 30005KT 10SM CLR 13/05 A3021 RMK AO2 SLP243 T01280050 10150 20122 55000
PAWN 200456Z AUTO 00000KT 10SM CLR 14/03 A3020 RMK AO2 SLP241 T01440028
PAWN 200356Z AUTO 00000KT 10SM CLR 14/03 A3021 RMK AO2 SLP243 T01440028
PAWN 200256Z AUTO 26004KT 10SM CLR 14/02 A3021 RMK AO2 SLP244 T01440017 53000
PAWN 200156Z AUTO 00000KT 10SM CLR 14/02 A3021 RMK AO2 SLP244 T01390017
PAWN 200056Z AUTO VRB05KT 10SM CLR 14/02 A3020 RMK AO2 SLP242 T01390022
PAWN 192356Z AUTO 30005KT 10SM CLR 12/01 A3021 RMK AO2 SLP243 60000 T01220011 10122 20067 53004
PAWN 192256Z AUTO 32003KT 10SM FEW033 12/03 A3020 RMK AO2 SLP241 T01170028
PAWN 192156Z AUTO 29005KT 10SM CLR 11/03 A3020 RMK AO2 SLP239 T01060028
PAWN 192056Z AUTO 32004KT 10SM CLR 09/03 A3019 RMK AO2 SLP239 60000 T00890033 53015
PAWN 191956Z AUTO 30007KT 10SM SCT040 08/04 A3018 RMK AO2 SLP234 T00780044